createdAt,value
2022-10-19T00:01:11.016Z,18.75
2022-10-19T00:03:38.877Z,20.63
2022-10-19T00:06:20.684Z,20.30
2022-10-19T00:08:47.687Z,19.92
2022-10-19T00:11:14.791Z,21.38
2022-10-19T00:13:41.738Z,18.77
2022-10-19T00:16:12.030Z,18.75
2022-10-19T00:18:40.008Z,22.33
2022-10-19T00:21:08.998Z,23.70
2022-10-19T00:23:38.850Z,18.50
2022-10-19T00:26:06.170Z,21.27
2022-10-19T00:28:33.446Z,21.20
2022-10-19T00:31:10.684Z,24.45
2022-10-19T00:33:37.921Z,18.52
2022-10-19T00:36:05.956Z,19.27
2022-10-19T00:38:33.227Z,21.83
2022-10-19T00:41:00.311Z,18.88
2022-10-19T00:43:30.421Z,22.88
2022-10-19T00:45:57.567Z,17.58
2022-10-19T00:48:35.340Z,17.13
2022-10-19T00:51:04.804Z,20.15
2022-10-19T00:53:31.955Z,21.95
2022-10-19T00:56:07.672Z,18.38
2022-10-19T00:58:34.686Z,18.27
2022-10-19T01:01:05.728Z,19.80
2022-10-19T01:03:33.749Z,17.58
2022-10-19T01:06:01.919Z,20.20
2022-10-19T01:08:29.277Z,22.60
2022-10-19T01:11:05.741Z,16.88
2022-10-19T01:13:57.155Z,19.05
2022-10-19T01:16:36.485Z,18.60
2022-10-19T01:19:15.523Z,18.20
2022-10-19T01:21:50.401Z,18.25
2022-10-19T01:24:38.408Z,18.23
2022-10-19T01:27:32.423Z,18.27
2022-10-19T01:30:17.504Z,17.80
2022-10-19T01:32:52.230Z,19.08
2022-10-19T01:35:45.601Z,20.85
2022-10-19T01:38:20.009Z,15.90
2022-10-19T01:41:05.496Z,15.93
2022-10-19T01:46:21.759Z,18.50
2022-10-19T01:48:56.758Z,15.65
2022-10-19T01:51:29.116Z,14.40
2022-10-19T01:54:01.010Z,15.70
2022-10-19T01:56:33.253Z,14.35
2022-10-19T01:59:04.458Z,14.43
2022-10-19T02:01:35.792Z,13.10
2022-10-19T02:04:04.358Z,16.10
2022-10-19T02:06:33.533Z,15.30
2022-10-19T02:09:00.919Z,14.23
2022-10-19T02:11:29.716Z,15.95
2022-10-19T02:14:04.727Z,13.50
2022-10-19T02:16:39.755Z,15.35
2022-10-19T02:19:12.266Z,16.33
2022-10-19T02:21:39.820Z,11.50
2022-10-19T02:24:08.200Z,15.32
2022-10-19T02:26:35.154Z,13.57
2022-10-19T02:29:04.953Z,13.68
2022-10-19T02:31:32.256Z,13.15
2022-10-19T02:33:59.579Z,15.00
2022-10-19T02:36:26.976Z,16.25
2022-10-19T02:38:54.392Z,14.45
2022-10-19T02:41:27.741Z,13.63
2022-10-19T02:44:01.189Z,12.85
2022-10-19T02:46:34.982Z,11.95
2022-10-19T02:49:04.578Z,12.45
2022-10-19T02:51:35.054Z,12.48
2022-10-19T02:54:05.233Z,13.23
2022-10-19T02:56:33.558Z,12.65
2022-10-19T02:59:01.353Z,10.00
2022-10-19T03:01:31.333Z,10.38
2022-10-19T03:03:58.602Z,12.15
2022-10-19T03:06:25.562Z,12.65
2022-10-19T03:08:52.614Z,14.65
2022-10-19T03:11:19.842Z,10.93
2022-10-19T03:16:14.924Z,12.55
2022-10-19T03:18:42.433Z,14.15
2022-10-19T03:21:11.908Z,12.38
2022-10-19T03:23:40.431Z,12.80
2022-10-19T03:26:11.494Z,12.80
2022-10-19T03:28:42.202Z,14.05
2022-10-19T03:31:09.802Z,10.00
2022-10-19T03:33:36.889Z,8.90
2022-10-19T03:36:24.448Z,10.25
2022-10-19T03:38:56.041Z,9.77
2022-10-19T03:41:26.194Z,9.77
2022-10-19T03:43:53.418Z,10.45
2022-10-19T03:46:21.569Z,11.88
2022-10-19T03:48:48.761Z,10.27
2022-10-19T03:51:18.479Z,11.07
2022-10-19T03:53:46.065Z,8.13
2022-10-19T03:56:15.634Z,9.57
2022-10-19T03:58:44.750Z,10.82
2022-10-19T04:01:15.576Z,9.07
2022-10-19T04:03:45.180Z,11.40
2022-10-19T04:06:21.168Z,8.27
2022-10-19T04:08:50.248Z,9.50
2022-10-19T04:11:19.899Z,9.75
2022-10-19T04:13:51.356Z,8.48
2022-10-19T04:16:19.834Z,8.85
2022-10-19T04:18:47.546Z,8.73
2022-10-19T04:21:35.401Z,9.77
2022-10-19T04:24:05.983Z,8.65
2022-10-19T04:26:34.753Z,9.10
2022-10-19T04:29:02.021Z,11.30
2022-10-19T04:31:32.255Z,8.52
2022-10-19T04:33:59.573Z,9.57
2022-10-19T04:36:26.526Z,9.93
2022-10-19T04:38:53.627Z,8.80
2022-10-19T04:41:21.861Z,8.50
2022-10-19T04:43:54.226Z,8.52
2022-10-19T04:46:21.332Z,9.23
2022-10-19T04:48:51.644Z,8.30
2022-10-19T04:51:20.029Z,8.43
2022-10-19T04:53:47.855Z,12.82
2022-10-19T04:56:20.648Z,7.85
2022-10-19T04:58:50.318Z,7.88
2022-10-19T05:01:20.681Z,8.82
2022-10-19T05:03:48.595Z,7.63
2022-10-19T05:06:16.066Z,10.20
2022-10-19T05:08:43.190Z,8.43
2022-10-19T05:11:14.166Z,10.90
2022-10-19T05:13:42.967Z,8.20
2022-10-19T05:16:15.952Z,7.43
2022-10-19T05:18:43.742Z,8.63
2022-10-19T05:21:12.767Z,12.98
2022-10-19T05:23:41.351Z,8.43
2022-10-19T05:26:11.500Z,8.20
2022-10-19T05:28:38.976Z,8.50
2022-10-19T05:31:09.872Z,12.38
2022-10-19T05:33:37.808Z,11.07
2022-10-19T05:36:32.352Z,8.95
2022-10-19T05:39:02.927Z,10.68
2022-10-19T05:41:29.974Z,9.98
2022-10-19T05:43:59.149Z,7.68
2022-10-19T05:46:29.796Z,12.60
2022-10-19T05:48:58.077Z,7.85
2022-10-19T05:51:26.930Z,8.57
2022-10-19T05:53:57.298Z,9.35
2022-10-19T05:56:26.714Z,7.07
2022-10-19T05:58:55.992Z,6.55
2022-10-19T06:01:23.022Z,8.15
2022-10-19T06:03:55.238Z,8.90
2022-10-19T06:06:26.033Z,9.25
2022-10-19T06:08:54.582Z,8.40
2022-10-19T06:11:25.645Z,7.53
2022-10-19T06:13:55.821Z,7.50
2022-10-19T06:16:24.239Z,5.88
2022-10-19T06:18:52.979Z,11.57
2022-10-19T06:21:22.918Z,6.55
2022-10-19T06:23:57.544Z,6.28
2022-10-19T06:26:26.011Z,5.60
2022-10-19T06:28:58.073Z,7.50
2022-10-19T06:31:25.053Z,6.38
2022-10-19T06:33:52.224Z,6.93
2022-10-19T06:36:22.245Z,7.57
2022-10-19T06:38:50.720Z,8.32
2022-10-19T06:41:17.898Z,5.80
2022-10-19T06:43:49.694Z,12.50
2022-10-19T06:46:20.479Z,6.45
2022-10-19T06:48:55.957Z,8.98
2022-10-19T06:51:25.512Z,9.48
2022-10-19T06:53:56.535Z,6.28
2022-10-19T06:56:26.317Z,5.47
2022-10-19T06:58:54.696Z,5.63
2022-10-19T07:01:22.819Z,4.60
2022-10-19T07:03:52.784Z,4.43
2022-10-19T07:06:22.899Z,6.55
2022-10-19T07:08:50.062Z,5.40
2022-10-19T07:11:22.513Z,5.75
2022-10-19T07:16:22.976Z,6.03
2022-10-19T07:18:52.596Z,6.97
2022-10-19T07:21:21.565Z,5.88
2022-10-19T07:23:49.055Z,5.40
2022-10-19T07:26:23.972Z,6.50
2022-10-19T07:28:51.246Z,7.90
2022-10-19T07:31:21.169Z,5.43
2022-10-19T07:33:53.968Z,6.25
2022-10-19T07:36:23.736Z,4.03
2022-10-19T07:38:51.261Z,3.75
2022-10-19T07:41:21.483Z,7.47
2022-10-19T07:43:49.772Z,4.53
2022-10-19T07:46:19.076Z,8.75
2022-10-19T07:48:46.433Z,7.53
2022-10-19T07:51:15.535Z,4.57
2022-10-19T07:53:43.228Z,5.28
2022-10-19T07:56:15.909Z,7.28
2022-10-19T07:58:43.818Z,8.23
2022-10-19T08:01:19.586Z,5.00
2022-10-19T08:06:35.180Z,5.20
2022-10-19T08:09:02.390Z,5.35
2022-10-19T08:11:34.258Z,4.05
2022-10-19T08:14:03.176Z,5.10
2022-10-19T08:16:44.683Z,4.40
2022-10-19T08:19:14.496Z,5.45
2022-10-19T08:21:43.923Z,7.57
2022-10-19T08:24:13.209Z,5.28
2022-10-19T08:26:40.692Z,7.57
2022-10-19T08:29:12.564Z,7.75
2022-10-19T08:31:40.599Z,4.65
2022-10-19T08:34:08.205Z,4.85
2022-10-19T08:36:36.205Z,3.70
2022-10-19T08:39:06.390Z,5.30
2022-10-19T08:42:04.411Z,5.95
2022-10-19T08:45:00.732Z,8.35
2022-10-19T08:47:48.012Z,5.43
2022-10-19T08:50:20.943Z,4.30
2022-10-19T08:53:16.798Z,4.25
2022-10-19T08:56:38.856Z,4.07
2022-10-19T08:59:26.601Z,4.05
2022-10-19T09:02:01.941Z,4.95
2022-10-19T09:04:45.287Z,5.40
2022-10-19T09:07:23.703Z,5.18
2022-10-19T09:09:56.875Z,3.67
2022-10-19T09:13:03.180Z,5.30
2022-10-19T09:15:42.701Z,4.03
2022-10-19T09:18:30.173Z,7.38
2022-10-19T09:21:12.691Z,6.35
2022-10-19T09:23:47.715Z,6.57
2022-10-19T09:26:28.493Z,6.20
2022-10-19T09:29:03.519Z,4.25
2022-10-19T09:31:40.365Z,4.82
2022-10-19T09:34:31.032Z,5.07
2022-10-19T09:37:01.411Z,3.65
2022-10-19T09:39:32.856Z,4.63
2022-10-19T09:42:08.107Z,5.40
2022-10-19T09:47:14.552Z,4.25
2022-10-19T09:49:44.227Z,5.30
2022-10-19T09:52:36.322Z,3.70
2022-10-19T09:55:23.163Z,4.30
2022-10-19T09:57:58.755Z,4.85
2022-10-19T10:00:33.529Z,5.50
2022-10-19T10:03:00.791Z,5.00
2022-10-19T10:05:47.991Z,5.85
2022-10-19T10:08:19.311Z,6.43
2022-10-19T10:10:53.338Z,7.38
2022-10-19T10:13:23.932Z,4.40
2022-10-19T10:16:09.922Z,4.60
2022-10-19T10:18:45.435Z,4.43
2022-10-19T10:21:25.117Z,3.97
2022-10-19T10:24:28.799Z,10.55
2022-10-19T10:26:58.982Z,5.82
2022-10-19T10:29:30.126Z,4.95
2022-10-19T10:32:05.347Z,4.00
2022-10-19T10:35:04.653Z,5.10
2022-10-19T10:37:37.705Z,10.35
2022-10-19T10:40:06.485Z,4.95
2022-10-19T10:42:41.381Z,4.63
2022-10-19T10:45:31.346Z,4.47
2022-10-19T10:48:22.415Z,7.82
2022-10-19T10:50:49.666Z,4.40
2022-10-19T10:53:32.025Z,3.58
2022-10-19T10:55:59.001Z,3.67
2022-10-19T10:58:50.387Z,6.95
2022-10-19T11:01:25.699Z,3.80
2022-10-19T11:04:28.646Z,4.47
2022-10-19T11:07:08.118Z,4.22
2022-10-19T11:09:40.601Z,4.35
2022-10-19T11:12:16.417Z,8.95
2022-10-19T11:14:50.545Z,3.65
2022-10-19T11:17:40.003Z,5.85
2022-10-19T11:20:11.175Z,5.15
2022-10-19T11:22:44.956Z,4.85
2022-10-19T11:25:37.105Z,5.90
2022-10-19T11:28:17.499Z,5.15
2022-10-19T11:31:00.283Z,4.88
2022-10-19T11:33:36.574Z,4.68
2022-10-19T11:36:12.784Z,3.22
2022-10-19T11:38:45.782Z,8.23
2022-10-19T11:41:17.698Z,7.88
2022-10-19T11:44:04.170Z,4.80
2022-10-19T11:46:59.621Z,5.03
2022-10-19T11:49:40.849Z,5.75
2022-10-19T11:52:17.111Z,3.35
2022-10-19T11:54:56.063Z,3.20
2022-10-19T11:57:30.562Z,4.70
2022-10-19T12:00:39.024Z,5.05
2022-10-19T12:03:40.486Z,4.47
2022-10-19T12:06:16.344Z,3.85
2022-10-19T12:09:23.766Z,7.80
2022-10-19T12:12:15.029Z,5.13
2022-10-19T12:14:45.123Z,5.63
2022-10-19T12:17:24.181Z,4.72
2022-10-19T12:19:56.332Z,7.75
2022-10-19T12:22:26.881Z,9.13
2022-10-19T12:24:57.369Z,9.57
2022-10-19T12:27:39.203Z,8.25
2022-10-19T12:30:08.465Z,8.57
2022-10-19T12:32:53.426Z,6.68
2022-10-19T12:35:35.305Z,5.97
2022-10-19T12:38:16.425Z,7.80
2022-10-19T12:40:46.257Z,10.95
2022-10-19T12:43:13.505Z,9.73
2022-10-19T12:46:02.098Z,9.32
2022-10-19T12:48:29.154Z,11.50
2022-10-19T12:51:00.558Z,9.13
2022-10-19T12:53:31.130Z,10.20
2022-10-19T12:56:20.460Z,7.00
2022-10-19T12:58:53.189Z,6.40
2022-10-19T13:01:28.286Z,9.02
2022-10-19T13:04:14.818Z,9.82
2022-10-19T13:06:48.528Z,9.80
2022-10-19T13:09:36.619Z,7.15
2022-10-19T13:12:19.650Z,7.00
2022-10-19T13:15:00.930Z,12.55
2022-10-19T13:17:48.610Z,11.35
2022-10-19T13:20:15.729Z,8.98
2022-10-19T13:22:50.745Z,10.38
2022-10-19T13:25:43.665Z,10.50
2022-10-19T13:28:10.829Z,8.63
2022-10-19T13:30:37.689Z,8.93
2022-10-19T13:33:25.983Z,8.95
2022-10-19T13:35:59.426Z,9.82
2022-10-19T13:38:30.913Z,6.45
2022-10-19T13:41:11.987Z,10.05
2022-10-19T13:44:01.979Z,9.18
2022-10-19T13:46:29.268Z,8.18
2022-10-19T13:49:30.372Z,8.88
2022-10-19T13:52:09.082Z,12.13
2022-10-19T13:55:09.506Z,10.43
2022-10-19T13:58:14.158Z,11.93
2022-10-19T14:01:06.674Z,9.00
2022-10-19T14:03:48.958Z,9.27
2022-10-19T14:07:08.466Z,9.13
2022-10-19T14:09:51.035Z,10.13
2022-10-19T14:12:27.861Z,13.30
2022-10-19T14:14:55.075Z,9.27
2022-10-19T14:17:34.088Z,12.43
2022-10-19T14:20:24.181Z,9.75
2022-10-19T14:22:51.240Z,11.30
2022-10-19T14:25:27.556Z,11.48
2022-10-19T14:28:00.140Z,9.98
2022-10-19T14:30:33.837Z,8.63
2022-10-19T14:33:07.027Z,13.15
2022-10-19T14:35:40.340Z,11.68
2022-10-19T14:38:09.079Z,11.65
2022-10-19T14:40:41.246Z,17.50
2022-10-19T14:43:31.317Z,10.27
2022-10-19T14:46:07.324Z,14.18
2022-10-19T14:48:47.475Z,9.75
2022-10-19T14:51:33.459Z,10.85
2022-10-19T14:54:08.391Z,8.05
2022-10-19T14:56:53.208Z,9.00
2022-10-19T14:59:29.448Z,17.90
2022-10-19T15:02:03.892Z,12.40
2022-10-19T15:04:37.135Z,12.48
2022-10-19T15:07:17.237Z,15.52
2022-10-19T15:09:52.072Z,10.52
2022-10-19T15:12:27.110Z,12.63
2022-10-19T15:14:54.727Z,7.70
2022-10-19T15:17:24.894Z,8.25
2022-10-19T15:19:52.662Z,10.13
2022-10-19T15:22:38.233Z,9.48
2022-10-19T15:25:08.248Z,7.05
2022-10-19T15:27:41.906Z,8.20
2022-10-19T15:30:26.973Z,8.65
2022-10-19T15:33:00.633Z,10.25
2022-10-19T15:35:33.921Z,11.00
2022-10-19T15:38:16.582Z,7.35
2022-10-19T15:40:47.371Z,7.65
2022-10-19T15:43:46.197Z,5.45
2022-10-19T15:46:13.453Z,12.68
2022-10-19T15:48:40.611Z,8.85
2022-10-19T15:51:26.191Z,9.82
2022-10-19T15:54:01.844Z,10.05
2022-10-19T15:56:32.219Z,7.90
2022-10-19T15:59:05.308Z,7.30
2022-10-19T16:01:33.489Z,7.15
2022-10-19T16:04:00.907Z,8.32
2022-10-19T16:06:32.050Z,7.70
2022-10-19T16:09:00.488Z,10.73
2022-10-19T16:11:29.080Z,7.15
2022-10-19T16:13:56.996Z,5.63
2022-10-19T16:16:31.061Z,8.15
2022-10-19T16:19:03.284Z,8.93
2022-10-19T16:21:35.602Z,9.73
2022-10-19T16:24:07.689Z,6.07
2022-10-19T16:26:36.372Z,7.75
2022-10-19T16:29:06.592Z,8.20
2022-10-19T16:31:34.791Z,8.57
2022-10-19T16:34:03.373Z,5.75
2022-10-19T16:36:30.962Z,8.60
2022-10-19T16:39:02.219Z,12.38
2022-10-19T16:41:30.232Z,9.32
2022-10-19T16:43:58.131Z,7.22
2022-10-19T16:46:28.969Z,6.28
2022-10-19T16:48:56.883Z,6.57
2022-10-19T16:51:25.835Z,10.05
2022-10-19T16:53:57.436Z,8.32
2022-10-19T16:56:28.095Z,5.35
2022-10-19T16:58:59.999Z,6.68
2022-10-19T17:01:29.496Z,5.38
2022-10-19T17:03:58.247Z,5.50
2022-10-19T17:06:27.676Z,9.52
2022-10-19T17:11:49.288Z,8.65
2022-10-19T17:14:17.801Z,14.75
2022-10-19T17:16:49.530Z,9.65
2022-10-19T17:19:18.215Z,6.95
2022-10-19T17:21:52.537Z,13.77
2022-10-19T17:24:23.238Z,8.25
2022-10-19T17:26:53.073Z,6.18
2022-10-19T17:29:23.471Z,5.90
2022-10-19T17:31:56.032Z,5.78
2022-10-19T17:34:28.238Z,6.88
2022-10-19T17:36:57.898Z,12.43
2022-10-19T17:39:30.004Z,6.18
2022-10-19T17:42:03.517Z,9.25
2022-10-19T17:44:32.370Z,8.02
2022-10-19T17:47:01.988Z,5.85
2022-10-19T17:49:31.847Z,3.38
2022-10-19T17:52:00.705Z,7.63
2022-10-19T17:54:29.228Z,5.93
2022-10-19T17:57:00.676Z,5.57
2022-10-19T17:59:40.539Z,9.27
2022-10-19T18:02:18.831Z,8.43
2022-10-19T18:04:50.444Z,5.00
2022-10-19T18:07:26.315Z,5.53
2022-10-19T18:09:56.561Z,8.43
2022-10-19T18:12:27.401Z,3.50
2022-10-19T18:14:57.533Z,6.10
2022-10-19T18:17:27.869Z,4.97
2022-10-19T18:19:58.276Z,8.55
2022-10-19T18:22:32.527Z,6.90
2022-10-19T18:25:04.870Z,4.63
2022-10-19T18:27:35.984Z,7.10
2022-10-19T18:30:11.795Z,8.48
2022-10-19T18:32:40.263Z,6.18
2022-10-19T18:35:11.022Z,6.18
2022-10-19T18:37:40.302Z,8.88
2022-10-19T18:40:12.958Z,9.90
2022-10-19T18:42:41.682Z,7.57
2022-10-19T18:45:16.988Z,4.63
2022-10-19T18:47:49.460Z,4.67
2022-10-19T18:50:22.585Z,8.88
2022-10-19T18:52:52.078Z,7.25
2022-10-19T18:55:22.583Z,10.43
2022-10-19T18:57:51.808Z,5.22
2022-10-19T19:00:25.539Z,7.15
2022-10-19T19:03:02.277Z,5.03
2022-10-19T19:05:37.619Z,3.55
2022-10-19T19:08:07.438Z,4.13
2022-10-19T19:10:37.764Z,6.63
2022-10-19T19:13:09.303Z,5.63
2022-10-19T19:15:43.862Z,7.95
2022-10-19T19:18:13.862Z,4.00
2022-10-19T19:20:45.645Z,8.68
2022-10-19T19:23:15.223Z,6.50
2022-10-19T19:25:44.830Z,6.13
2022-10-19T19:28:16.865Z,5.15
2022-10-19T19:30:47.469Z,6.97
2022-10-19T19:33:19.736Z,5.20
2022-10-19T19:35:50.983Z,6.13
2022-10-19T19:38:19.819Z,3.55
2022-10-19T19:40:50.145Z,8.18
2022-10-19T19:43:21.932Z,4.93
2022-10-19T19:46:00.979Z,5.60
2022-10-19T19:48:33.844Z,8.13
2022-10-19T19:51:13.443Z,4.97
2022-10-19T19:53:42.550Z,5.47
2022-10-19T19:56:13.710Z,5.88
2022-10-19T19:58:43.888Z,5.35
2022-10-19T20:01:19.302Z,5.28
2022-10-19T20:03:53.848Z,5.53
2022-10-19T20:06:26.151Z,7.30
2022-10-19T20:09:00.765Z,5.20
2022-10-19T20:11:41.234Z,9.40
2022-10-19T20:14:13.580Z,8.38
2022-10-19T20:16:45.600Z,7.25
2022-10-19T20:19:15.824Z,6.13
2022-10-19T20:21:46.110Z,3.70
2022-10-19T20:24:17.838Z,10.88
2022-10-19T20:26:49.911Z,7.43
2022-10-19T20:29:19.177Z,6.15
2022-10-19T20:31:48.264Z,5.68
2022-10-19T20:34:19.524Z,6.57
2022-10-19T20:37:10.428Z,7.15
2022-10-19T20:39:40.507Z,6.55
2022-10-19T20:42:08.792Z,5.47
2022-10-19T20:44:36.464Z,6.35
2022-10-19T20:47:04.933Z,6.53
2022-10-19T20:49:32.694Z,10.55
2022-10-19T20:52:00.845Z,4.00
2022-10-19T20:54:28.740Z,5.90
2022-10-19T20:56:57.801Z,6.03
2022-10-19T20:59:27.829Z,9.45
2022-10-19T21:02:00.031Z,7.40
2022-10-19T21:04:27.633Z,4.72
2022-10-19T21:06:54.836Z,6.28
2022-10-19T21:09:26.070Z,9.45
2022-10-19T21:11:53.402Z,12.68
2022-10-19T21:14:26.986Z,6.72
2022-10-19T21:16:59.621Z,6.45
2022-10-19T21:19:28.639Z,8.82
2022-10-19T21:22:06.138Z,6.70
2022-10-19T21:24:36.076Z,7.28
2022-10-19T21:27:06.702Z,9.90
2022-10-19T21:29:34.325Z,11.20
2022-10-19T21:32:01.956Z,6.43
2022-10-19T21:34:30.310Z,9.20
2022-10-19T21:36:58.396Z,6.13
2022-10-19T21:39:25.398Z,7.15
2022-10-19T21:41:52.976Z,6.47
2022-10-19T21:44:22.207Z,4.35
2022-10-19T21:46:51.788Z,4.53
2022-10-19T21:49:18.950Z,6.63
2022-10-19T21:51:50.896Z,5.25
2022-10-19T21:54:20.452Z,6.60
2022-10-19T21:56:48.305Z,5.10
2022-10-19T21:59:15.524Z,7.15
2022-10-19T22:01:43.138Z,7.75
2022-10-19T22:04:16.044Z,8.82
2022-10-19T22:06:43.986Z,9.25
2022-10-19T22:09:15.172Z,6.78
2022-10-19T22:11:42.925Z,16.02
2022-10-19T22:14:11.638Z,6.18
2022-10-19T22:16:40.367Z,6.70
2022-10-19T22:19:07.784Z,6.13
2022-10-19T22:21:35.508Z,10.55
2022-10-19T22:24:09.443Z,9.45
2022-10-19T22:26:40.154Z,7.15
2022-10-19T22:29:08.062Z,8.80
2022-10-19T22:31:36.230Z,8.27
2022-10-19T22:34:09.225Z,9.13
2022-10-19T22:36:36.503Z,10.93
2022-10-19T22:39:04.165Z,7.95
2022-10-19T22:41:33.723Z,8.55
2022-10-19T22:44:00.692Z,9.38
2022-10-19T22:46:30.287Z,6.32
2022-10-19T22:48:57.328Z,7.32
2022-10-19T22:51:24.556Z,8.48
2022-10-19T22:53:51.502Z,7.35
2022-10-19T22:56:18.623Z,10.52
2022-10-19T22:58:45.800Z,12.82
2022-10-19T23:01:15.024Z,5.63
2022-10-19T23:03:42.240Z,6.65
2022-10-19T23:06:12.086Z,8.05
2022-10-19T23:08:39.615Z,7.55
2022-10-19T23:11:07.218Z,6.65
2022-10-19T23:13:34.226Z,7.20
2022-10-19T23:16:01.723Z,7.85
2022-10-19T23:18:35.820Z,7.28
2022-10-19T23:21:09.523Z,6.05
2022-10-19T23:23:37.117Z,8.93
2022-10-19T23:26:16.931Z,23.45
2022-10-19T23:28:46.332Z,7.82
2022-10-19T23:31:16.447Z,6.43
2022-10-19T23:33:46.788Z,6.20
2022-10-19T23:36:14.484Z,9.05
2022-10-19T23:38:43.180Z,9.35
2022-10-19T23:41:11.166Z,8.48
2022-10-19T23:43:38.309Z,13.35
2022-10-19T23:46:05.710Z,8.75
2022-10-19T23:48:34.456Z,8.95
2022-10-19T23:51:09.794Z,7.32
2022-10-19T23:53:41.056Z,7.25
2022-10-19T23:56:12.144Z,9.02
2022-10-19T23:58:42.523Z,8.13
